sensor_id;sensor_type;location;lat;lon;timestamp;pressure;altitude;pressure_sealevel;temperature;humidity
55590;BME280;41452;42.780;23.116;2023-01-30T00:00:33;94612.38;;;-2.30;100.00
55590;BME280;41452;42.780;23.116;2023-01-30T00:02:59;94606.28;;;-2.28;100.00
55590;BME280;41452;42.780;23.116;2023-01-30T00:05:24;94515.69;;;-2.96;100.00
55590;BME280;41452;42.780;23.116;2023-01-30T00:07:50;94617.00;;;-2.33;100.00
55590;BME280;41452;42.780;23.116;2023-01-30T00:10:15;94609.41;;;-2.35;100.00
55590;BME280;41452;42.780;23.116;2023-01-30T00:12:41;94617.31;;;-2.36;100.00
55590;BME280;41452;42.780;23.116;2023-01-30T00:15:06;94612.16;;;-2.36;100.00
55590;BME280;41452;42.780;23.116;2023-01-30T00:17:32;94609.41;;;-2.35;100.00
55590;BME280;41452;42.780;23.116;2023-01-30T00:19:57;94609.72;;;-2.38;100.00
55590;BME280;41452;42.780;23.116;2023-01-30T00:22:23;94603.72;;;-2.56;100.00
55590;BME280;41452;42.780;23.116;2023-01-30T00:24:48;94613.31;;;-2.49;100.00
55590;BME280;41452;42.780;23.116;2023-01-30T00:27:14;94593.81;;;-2.51;100.00
55590;BME280;41452;42.780;23.116;2023-01-30T00:29:39;94607.72;;;-2.44;100.00
55590;BME280;41452;42.780;23.116;2023-01-30T00:32:04;94601.53;;;-2.51;100.00
55590;BME280;41452;42.780;23.116;2023-01-30T00:34:30;94602.25;;;-2.59;100.00
55590;BME280;41452;42.780;23.116;2023-01-30T00:36:55;94596.81;;;-2.56;100.00
55590;BME280;41452;42.780;23.116;2023-01-30T00:39:21;94560.69;;;-2.82;100.00
55590;BME280;41452;42.780;23.116;2023-01-30T00:41:46;94588.41;;;-2.58;100.00
55590;BME280;41452;42.780;23.116;2023-01-30T00:44:30;94594.94;;;-2.63;100.00
55590;BME280;41452;42.780;23.116;2023-01-30T00:47:14;94586.13;;;-2.79;100.00
55590;BME280;41452;42.780;23.116;2023-01-30T00:49:39;94592.53;;;-2.65;100.00
55590;BME280;41452;42.780;23.116;2023-01-30T00:52:06;94521.31;;;-3.10;100.00
55590;BME280;41452;42.780;23.116;2023-01-30T00:54:32;94532.59;;;-2.93;100.00
55590;BME280;41452;42.780;23.116;2023-01-30T00:56:58;94592.22;;;-2.52;100.00
55590;BME280;41452;42.780;23.116;2023-01-30T00:59:26;94592.22;;;-2.52;100.00
55590;BME280;41452;42.780;23.116;2023-01-30T01:01:55;94590.44;;;-2.52;100.00
55590;BME280;41452;42.780;23.116;2023-01-30T01:04:24;94589.19;;;-2.47;100.00
55590;BME280;41452;42.780;23.116;2023-01-30T01:06:49;94581.91;;;-2.52;100.00
55590;BME280;41452;42.780;23.116;2023-01-30T01:09:15;94541.69;;;-2.71;100.00
55590;BME280;41452;42.780;23.116;2023-01-30T01:11:40;94577.56;;;-2.52;100.00
55590;BME280;41452;42.780;23.116;2023-01-30T01:14:05;94495.22;;;-3.06;100.00
55590;BME280;41452;42.780;23.116;2023-01-30T01:16:32;94551.00;;;-2.70;100.00
55590;BME280;41452;42.780;23.116;2023-01-30T01:18:58;94519.56;;;-2.82;100.00
55590;BME280;41452;42.780;23.116;2023-01-30T01:21:23;94559.94;;;-2.46;100.00
55590;BME280;41452;42.780;23.116;2023-01-30T01:23:51;94566.31;;;-2.51;100.00
55590;BME280;41452;42.780;23.116;2023-01-30T01:26:16;94487.34;;;-3.04;100.00
55590;BME280;41452;42.780;23.116;2023-01-30T01:28:42;94561.69;;;-2.47;100.00
55590;BME280;41452;42.780;23.116;2023-01-30T01:31:09;94515.47;;;-2.75;100.00
55590;BME280;41452;42.780;23.116;2023-01-30T01:33:35;94515.31;;;-2.73;100.00
55590;BME280;41452;42.780;23.116;2023-01-30T01:36:00;94559.88;;;-2.37;100.00
55590;BME280;41452;42.780;23.116;2023-01-30T01:38:25;94558.84;;;-2.44;100.00
55590;BME280;41452;42.780;23.116;2023-01-30T01:40:51;94469.59;;;-2.97;100.00
55590;BME280;41452;42.780;23.116;2023-01-30T01:43:36;94560.47;;;-2.43;100.00
55590;BME280;41452;42.780;23.116;2023-01-30T01:51:02;94555.34;;;-2.43;100.00
55590;BME280;41452;42.780;23.116;2023-01-30T01:53:32;94524.88;;;-2.65;100.00
55590;BME280;41452;42.780;23.116;2023-01-30T01:56:01;94550.59;;;-2.47;100.00
55590;BME280;41452;42.780;23.116;2023-01-30T01:58:37;94501.28;;;-2.79;100.00
55590;BME280;41452;42.780;23.116;2023-01-30T02:01:05;94549.59;;;-2.37;100.00
55590;BME280;41452;42.780;23.116;2023-01-30T02:03:34;94558.56;;;-2.41;100.00
55590;BME280;41452;42.780;23.116;2023-01-30T02:06:02;94552.31;;;-2.38;100.00
55590;BME280;41452;42.780;23.116;2023-01-30T02:08:35;94558.56;;;-2.41;100.00
55590;BME280;41452;42.780;23.116;2023-01-30T02:11:09;94538.66;;;-2.67;100.00
55590;BME280;41452;42.780;23.116;2023-01-30T02:13:37;94552.91;;;-2.44;100.00
55590;BME280;41452;42.780;23.116;2023-01-30T02:16:04;94547.34;;;-2.40;100.00
55590;BME280;41452;42.780;23.116;2023-01-30T02:18:32;94543.66;;;-2.37;100.00
55590;BME280;41452;42.780;23.116;2023-01-30T02:21:32;94548.66;;;-2.36;100.00
55590;BME280;41452;42.780;23.116;2023-01-30T02:37:35;94538.72;;;-2.13;100.00
55590;BME280;41452;42.780;23.116;2023-01-30T02:48:55;94545.19;;;-2.44;100.00
55590;BME280;41452;42.780;23.116;2023-01-30T02:51:06;94539.06;;;-2.43;100.00
55590;BME280;41452;42.780;23.116;2023-01-30T02:53:35;94544.38;;;-2.45;100.00
55590;BME280;41452;42.780;23.116;2023-01-30T02:56:01;94543.69;;;-2.47;100.00
55590;BME280;41452;42.780;23.116;2023-01-30T02:58:30;94544.22;;;-2.43;100.00
55590;BME280;41452;42.780;23.116;2023-01-30T03:09:35;94539.91;;;-2.43;100.00
55590;BME280;41452;42.780;23.116;2023-01-30T03:12:16;94532.84;;;-2.41;100.00
55590;BME280;41452;42.780;23.116;2023-01-30T03:14:50;94528.63;;;-2.42;100.00
55590;BME280;41452;42.780;23.116;2023-01-30T03:17:19;94524.97;;;-2.39;100.00
55590;BME280;41452;42.780;23.116;2023-01-30T03:19:47;94515.56;;;-2.49;100.00
55590;BME280;41452;42.780;23.116;2023-01-30T03:22:12;94515.41;;;-2.47;100.00
55590;BME280;41452;42.780;23.116;2023-01-30T03:24:38;94508.56;;;-2.56;100.00
55590;BME280;41452;42.780;23.116;2023-01-30T03:27:10;94514.69;;;-2.57;100.00
55590;BME280;41452;42.780;23.116;2023-01-30T03:29:37;94512.69;;;-2.63;100.00
55590;BME280;41452;42.780;23.116;2023-01-30T03:32:03;94508.13;;;-2.70;100.00
55590;BME280;41452;42.780;23.116;2023-01-30T03:34:28;94505.56;;;-2.70;100.00
55590;BME280;41452;42.780;23.116;2023-01-30T03:36:54;94504.97;;;-2.63;100.00
55590;BME280;41452;42.780;23.116;2023-01-30T03:39:19;94493.63;;;-2.71;100.00
55590;BME280;41452;42.780;23.116;2023-01-30T03:41:45;94503.22;;;-2.63;100.00
55590;BME280;41452;42.780;23.116;2023-01-30T03:44:10;94499.81;;;-2.63;100.00
55590;BME280;41452;42.780;23.116;2023-01-30T03:46:36;94503.34;;;-2.64;100.00
55590;BME280;41452;42.780;23.116;2023-01-30T03:49:01;94496.16;;;-2.61;100.00
55590;BME280;41452;42.780;23.116;2023-01-30T03:51:26;94494.81;;;-2.65;100.00
55590;BME280;41452;42.780;23.116;2023-01-30T03:53:52;94500.78;;;-2.64;100.00
55590;BME280;41452;42.780;23.116;2023-01-30T03:56:17;94494.25;;;-2.59;100.00
55590;BME280;41452;42.780;23.116;2023-01-30T03:58:42;94500.47;;;-2.61;100.00
55590;BME280;41452;42.780;23.116;2023-01-30T04:01:08;94499.44;;;-2.69;100.00
55590;BME280;41452;42.780;23.116;2023-01-30T04:03:33;94502.84;;;-2.68;100.00
55590;BME280;41452;42.780;23.116;2023-01-30T04:05:59;94493.78;;;-2.72;100.00
55590;BME280;41452;42.780;23.116;2023-01-30T04:08:24;94494.63;;;-2.72;100.00
55590;BME280;41452;42.780;23.116;2023-01-30T04:10:50;94494.91;;;-2.75;100.00
55590;BME280;41452;42.780;23.116;2023-01-30T04:13:15;94493.19;;;-2.84;100.00
55590;BME280;41452;42.780;23.116;2023-01-30T04:15:41;94498.41;;;-2.76;100.00
55590;BME280;41452;42.780;23.116;2023-01-30T04:18:06;94491.72;;;-2.69;100.00
55590;BME280;41452;42.780;23.116;2023-01-30T04:20:31;94485.78;;;-2.69;100.00
55590;BME280;41452;42.780;23.116;2023-01-30T04:22:57;94479.84;;;-2.70;100.00
55590;BME280;41452;42.780;23.116;2023-01-30T04:25:22;94479.00;;;-2.70;100.00
55590;BME280;41452;42.780;23.116;2023-01-30T04:27:48;94440.41;;;-3.06;100.00
55590;BME280;41452;42.780;23.116;2023-01-30T04:30:13;94479.47;;;-2.75;100.00
55590;BME280;41452;42.780;23.116;2023-01-30T04:32:39;94479.13;;;-2.90;100.00
55590;BME280;41452;42.780;23.116;2023-01-30T04:35:04;94486.72;;;-2.88;100.00
55590;BME280;41452;42.780;23.116;2023-01-30T04:37:30;94472.91;;;-2.87;100.00
55590;BME280;41452;42.780;23.116;2023-01-30T04:39:55;94469.72;;;-2.99;100.00
55590;BME280;41452;42.780;23.116;2023-01-30T04:42:20;94471.50;;;-2.99;100.00
55590;BME280;41452;42.780;23.116;2023-01-30T04:44:46;94475.19;;;-2.84;100.00
55590;BME280;41452;42.780;23.116;2023-01-30T04:47:11;94465.13;;;-2.77;100.00
55590;BME280;41452;42.780;23.116;2023-01-30T04:49:37;94459.84;;;-2.76;100.00
55590;BME280;41452;42.780;23.116;2023-01-30T04:52:02;94440.44;;;-2.88;100.00
55590;BME280;41452;42.780;23.116;2023-01-30T04:54:27;94452.19;;;-3.03;100.00
55590;BME280;41452;42.780;23.116;2023-01-30T04:56:53;94454.25;;;-2.89;100.00
55590;BME280;41452;42.780;23.116;2023-01-30T04:59:20;94469.81;;;-2.91;100.00
55590;BME280;41452;42.780;23.116;2023-01-30T05:01:45;94461.38;;;-2.83;100.00
55590;BME280;41452;42.780;23.116;2023-01-30T05:04:11;94418.25;;;-3.07;100.00
55590;BME280;41452;42.780;23.116;2023-01-30T05:06:37;94456.25;;;-2.83;100.00
55590;BME280;41452;42.780;23.116;2023-01-30T05:09:02;94454.03;;;-2.78;100.00
55590;BME280;41452;42.780;23.116;2023-01-30T05:11:28;94460.50;;;-2.74;100.00
55590;BME280;41452;42.780;23.116;2023-01-30T05:13:54;94386.91;;;-3.11;100.00
55590;BME280;41452;42.780;23.116;2023-01-30T05:16:21;94455.44;;;-2.65;100.00
55590;BME280;41452;42.780;23.116;2023-01-30T05:18:47;94458.31;;;-2.69;100.00
55590;BME280;41452;42.780;23.116;2023-01-30T05:21:15;94455.72;;;-2.69;100.00
55590;BME280;41452;42.780;23.116;2023-01-30T05:23:41;94439.66;;;-2.89;100.00
55590;BME280;41452;42.780;23.116;2023-01-30T05:26:08;94470.00;;;-2.74;100.00
55590;BME280;41452;42.780;23.116;2023-01-30T05:28:33;94457.59;;;-2.79;100.00
55590;BME280;41452;42.780;23.116;2023-01-30T05:31:12;94462.00;;;-2.71;100.00
55590;BME280;41452;42.780;23.116;2023-01-30T05:33:41;94465.38;;;-2.71;100.00
55590;BME280;41452;42.780;23.116;2023-01-30T05:36:07;94461.84;;;-2.70;100.00
55590;BME280;41452;42.780;23.116;2023-01-30T05:38:37;94451.75;;;-2.81;100.00
55590;BME280;41452;42.780;23.116;2023-01-30T05:41:05;94467.13;;;-2.71;100.00
55590;BME280;41452;42.780;23.116;2023-01-30T05:43:32;94465.97;;;-2.77;100.00
55590;BME280;41452;42.780;23.116;2023-01-30T05:45:58;94472.41;;;-2.73;100.00
55590;BME280;41452;42.780;23.116;2023-01-30T05:48:25;94434.94;;;-2.93;100.00
55590;BME280;41452;42.780;23.116;2023-01-30T05:50:55;94473.34;;;-2.74;100.00
55590;BME280;41452;42.780;23.116;2023-01-30T05:53:23;94475.66;;;-2.71;100.00
55590;BME280;41452;42.780;23.116;2023-01-30T05:55:59;94479.31;;;-2.73;100.00
55590;BME280;41452;42.780;23.116;2023-01-30T05:58:26;94472.19;;;-2.79;100.00
55590;BME280;41452;42.780;23.116;2023-01-30T06:00:52;94473.56;;;-2.85;100.00
55590;BME280;41452;42.780;23.116;2023-01-30T06:03:17;94469.38;;;-2.86;100.00
55590;BME280;41452;42.780;23.116;2023-01-30T06:05:43;94475.41;;;-2.77;100.00
55590;BME280;41452;42.780;23.116;2023-01-30T06:08:08;94469.03;;;-2.73;100.00
55590;BME280;41452;42.780;23.116;2023-01-30T06:10:34;94476.28;;;-2.87;100.00
55590;BME280;41452;42.780;23.116;2023-01-30T06:13:00;94466.53;;;-2.83;100.00
55590;BME280;41452;42.780;23.116;2023-01-30T06:15:25;94458.28;;;-2.87;100.00
55590;BME280;41452;42.780;23.116;2023-01-30T06:17:50;94440.59;;;-2.90;100.00
55590;BME280;41452;42.780;23.116;2023-01-30T06:20:16;94472.66;;;-2.66;100.00
55590;BME280;41452;42.780;23.116;2023-01-30T06:22:41;94470.88;;;-2.65;100.00
55590;BME280;41452;42.780;23.116;2023-01-30T06:25:07;94477.28;;;-2.70;100.00
55590;BME280;41452;42.780;23.116;2023-01-30T06:27:33;94476.03;;;-2.65;100.00
55590;BME280;41452;42.780;23.116;2023-01-30T06:29:59;94476.97;;;-2.67;100.00
55590;BME280;41452;42.780;23.116;2023-01-30T06:32:24;94471.09;;;-2.77;100.00
55590;BME280;41452;42.780;23.116;2023-01-30T06:34:49;94474.31;;;-2.75;100.00
55590;BME280;41452;42.780;23.116;2023-01-30T06:37:15;94476.25;;;-2.77;100.00
55590;BME280;41452;42.780;23.116;2023-01-30T06:39:40;94475.66;;;-2.71;100.00
55590;BME280;41452;42.780;23.116;2023-01-30T06:42:05;94467.94;;;-2.71;100.00
55590;BME280;41452;42.780;23.116;2023-01-30T06:44:31;94476.03;;;-2.65;100.00
55590;BME280;41452;42.780;23.116;2023-01-30T06:46:56;94471.25;;;-2.60;100.00
55590;BME280;41452;42.780;23.116;2023-01-30T06:49:22;94478.31;;;-2.62;100.00
55590;BME280;41452;42.780;23.116;2023-01-30T06:51:47;94440.16;;;-2.85;100.00
55590;BME280;41452;42.780;23.116;2023-01-30T06:54:13;94473.97;;;-2.62;100.00
55590;BME280;41452;42.780;23.116;2023-01-30T06:56:38;94473.44;;;-2.65;100.00
55590;BME280;41452;42.780;23.116;2023-01-30T06:59:03;94478.44;;;-2.64;100.00
55590;BME280;41452;42.780;23.116;2023-01-30T07:01:29;94476.16;;;-2.67;100.00
55590;BME280;41452;42.780;23.116;2023-01-30T07:03:54;94480.88;;;-2.62;100.00
55590;BME280;41452;42.780;23.116;2023-01-30T07:06:20;94475.13;;;-2.56;100.00
55590;BME280;41452;42.780;23.116;2023-01-30T07:08:45;94481.44;;;-2.51;100.00
55590;BME280;41452;42.780;23.116;2023-01-30T07:11:10;94432.16;;;-2.82;100.00
55590;BME280;41452;42.780;23.116;2023-01-30T07:13:36;94455.16;;;-2.62;100.00
55590;BME280;41452;42.780;23.116;2023-01-30T07:16:01;94485.78;;;-2.51;100.00
55590;BME280;41452;42.780;23.116;2023-01-30T07:18:27;94484.47;;;-2.55;100.00
55590;BME280;41452;42.780;23.116;2023-01-30T07:20:52;94482.44;;;-2.52;100.00
55590;BME280;41452;42.780;23.116;2023-01-30T07:23:17;94478.88;;;-2.51;100.00
55590;BME280;41452;42.780;23.116;2023-01-30T07:25:43;94473.09;;;-2.53;100.00
55590;BME280;41452;42.780;23.116;2023-01-30T07:28:09;94485.22;;;-2.45;100.00
55590;BME280;41452;42.780;23.116;2023-01-30T07:30:34;94491.97;;;-2.44;100.00
55590;BME280;41452;42.780;23.116;2023-01-30T07:33:01;94498.59;;;-2.41;100.00
55590;BME280;41452;42.780;23.116;2023-01-30T07:35:29;94494.25;;;-2.41;100.00
55590;BME280;41452;42.780;23.116;2023-01-30T07:37:55;94491.16;;;-2.44;100.00
55590;BME280;41452;42.780;23.116;2023-01-30T07:40:21;94492.63;;;-2.42;100.00
55590;BME280;41452;42.780;23.116;2023-01-30T07:45:34;94441.66;;;-2.64;100.00
55590;BME280;41452;42.780;23.116;2023-01-30T07:48:00;94492.56;;;-2.32;100.00
55590;BME280;41452;42.780;23.116;2023-01-30T07:50:26;94493.75;;;-2.26;100.00
55590;BME280;41452;42.780;23.116;2023-01-30T07:52:51;94486.03;;;-2.26;100.00
55590;BME280;41452;42.780;23.116;2023-01-30T07:55:17;94486.38;;;-2.21;100.00
55590;BME280;41452;42.780;23.116;2023-01-30T07:57:42;94483.53;;;-2.18;100.00
55590;BME280;41452;42.780;23.116;2023-01-30T08:00:08;94477.41;;;-2.17;100.00
55590;BME280;41452;42.780;23.116;2023-01-30T08:02:35;94481.25;;;-2.21;100.00
55590;BME280;41452;42.780;23.116;2023-01-30T08:05:00;94470.50;;;-2.35;100.00
55590;BME280;41452;42.780;23.116;2023-01-30T08:07:26;94478.91;;;-2.33;100.00
55590;BME280;41452;42.780;23.116;2023-01-30T08:09:51;94476.34;;;-2.33;100.00
55590;BME280;41452;42.780;23.116;2023-01-30T08:12:16;94460.59;;;-2.30;100.00
55590;BME280;41452;42.780;23.116;2023-01-30T08:14:42;94459.63;;;-2.28;100.00
55590;BME280;41452;42.780;23.116;2023-01-30T08:17:07;94463.47;;;-2.33;100.00
55590;BME280;41452;42.780;23.116;2023-01-30T08:19:32;94461.34;;;-2.37;100.00
55590;BME280;41452;42.780;23.116;2023-01-30T08:21:58;94455.38;;;-2.38;100.00
55590;BME280;41452;42.780;23.116;2023-01-30T08:24:24;94455.06;;;-2.35;100.00
55590;BME280;41452;42.780;23.116;2023-01-30T08:26:49;94457.50;;;-2.33;100.00
55590;BME280;41452;42.780;23.116;2023-01-30T08:29:15;94455.91;;;-2.34;100.00
55590;BME280;41452;42.780;23.116;2023-01-30T08:31:40;94414.25;;;-2.56;100.00
55590;BME280;41452;42.780;23.116;2023-01-30T08:34:05;94446.13;;;-2.31;100.00
55590;BME280;41452;42.780;23.116;2023-01-30T08:36:31;94443.19;;;-2.36;100.00
55590;BME280;41452;42.780;23.116;2023-01-30T08:38:56;94420.94;;;-2.45;100.00
55590;BME280;41452;42.780;23.116;2023-01-30T08:41:22;94440.25;;;-2.41;100.00
55590;BME280;41452;42.780;23.116;2023-01-30T08:43:47;94420.13;;;-2.63;100.00
55590;BME280;41452;42.780;23.116;2023-01-30T08:46:12;94438.19;;;-2.37;100.00
55590;BME280;41452;42.780;23.116;2023-01-30T08:48:38;94436.13;;;-2.34;100.00
55590;BME280;41452;42.780;23.116;2023-01-30T08:51:05;94442.06;;;-2.33;100.00
55590;BME280;41452;42.780;23.116;2023-01-30T08:53:32;94437.25;;;-2.36;100.00
55590;BME280;41452;42.780;23.116;2023-01-30T08:55:57;94440.38;;;-2.42;100.00
55590;BME280;41452;42.780;23.116;2023-01-30T08:58:22;94439.44;;;-2.41;100.00
55590;BME280;41452;42.780;23.116;2023-01-30T09:00:48;94380.53;;;-2.89;100.00
55590;BME280;41452;42.780;23.116;2023-01-30T09:03:15;94388.53;;;-2.74;100.00
55590;BME280;41452;42.780;23.116;2023-01-30T09:05:41;94436.72;;;-2.40;100.00
55590;BME280;41452;42.780;23.116;2023-01-30T09:08:06;94439.31;;;-2.40;100.00
55590;BME280;41452;42.780;23.116;2023-01-30T09:10:31;94433.97;;;-2.38;100.00
55590;BME280;41452;42.780;23.116;2023-01-30T09:12:57;94443.06;;;-2.52;100.00
55590;BME280;41452;42.780;23.116;2023-01-30T09:15:22;94432.66;;;-2.42;100.00
55590;BME280;41452;42.780;23.116;2023-01-30T09:17:47;94439.94;;;-2.38;100.00
55590;BME280;41452;42.780;23.116;2023-01-30T09:20:13;94438.47;;;-2.40;100.00
55590;BME280;41452;42.780;23.116;2023-01-30T09:22:39;94433.31;;;-2.40;100.00
55590;BME280;41452;42.780;23.116;2023-01-30T09:25:05;94355.56;;;-2.96;100.00
55590;BME280;41452;42.780;23.116;2023-01-30T09:27:31;94418.41;;;-2.55;100.00
55590;BME280;41452;42.780;23.116;2023-01-30T09:29:56;94433.41;;;-2.50;100.00
55590;BME280;41452;42.780;23.116;2023-01-30T09:32:22;94437.91;;;-2.52;100.00
55590;BME280;41452;42.780;23.116;2023-01-30T09:34:47;94427.31;;;-2.49;100.00
55590;BME280;41452;42.780;23.116;2023-01-30T09:37:13;94430.63;;;-2.57;100.00
55590;BME280;41452;42.780;23.116;2023-01-30T09:39:38;94426.75;;;-2.61;100.00
55590;BME280;41452;42.780;23.116;2023-01-30T09:45:00;94421.50;;;-2.69;100.00
55590;BME280;41452;42.780;23.116;2023-01-30T09:53:02;94411.81;;;-2.57;100.00
55590;BME280;41452;42.780;23.116;2023-01-30T09:55:32;94408.94;;;-2.54;100.00
55590;BME280;41452;42.780;23.116;2023-01-30T09:58:01;94383.91;;;-2.70;100.00
55590;BME280;41452;42.780;23.116;2023-01-30T10:00:38;94370.03;;;-2.59;100.00
55590;BME280;41452;42.780;23.116;2023-01-30T10:03:11;94399.38;;;-2.44;100.00
55590;BME280;41452;42.780;23.116;2023-01-30T10:05:43;94393.00;;;-2.40;100.00
55590;BME280;41452;42.780;23.116;2023-01-30T10:10:50;94376.53;;;-2.47;100.00
55590;BME280;41452;42.780;23.116;2023-01-30T10:16:12;94308.13;;;-2.84;100.00
55590;BME280;41452;42.780;23.116;2023-01-30T10:22:01;94372.13;;;-2.55;100.00
55590;BME280;41452;42.780;23.116;2023-01-30T10:24:42;94355.91;;;-2.55;100.00
55590;BME280;41452;42.780;23.116;2023-01-30T10:27:12;94347.72;;;-2.51;100.00
55590;BME280;41452;42.780;23.116;2023-01-30T10:29:51;94341.50;;;-2.48;100.00
55590;BME280;41452;42.780;23.116;2023-01-30T10:32:36;94312.41;;;-2.67;100.00
55590;BME280;41452;42.780;23.116;2023-01-30T10:35:11;94270.78;;;-2.96;100.00
55590;BME280;41452;42.780;23.116;2023-01-30T10:37:47;94330.47;;;-2.58;100.00
55590;BME280;41452;42.780;23.116;2023-01-30T10:45:44;94315.66;;;-2.38;100.00
55590;BME280;41452;42.780;23.116;2023-01-30T10:48:27;94307.00;;;-2.37;100.00
55590;BME280;41452;42.780;23.116;2023-01-30T10:51:04;94303.78;;;-2.39;100.00
55590;BME280;41452;42.780;23.116;2023-01-30T10:53:41;94225.81;;;-2.92;100.00
55590;BME280;41452;42.780;23.116;2023-01-30T11:01:36;94284.06;;;-2.31;100.00
55590;BME280;41452;42.780;23.116;2023-01-30T11:04:31;94284.06;;;-2.31;100.00
55590;BME280;41452;42.780;23.116;2023-01-30T11:07:00;94273.84;;;-2.49;100.00
55590;BME280;41452;42.780;23.116;2023-01-30T11:09:44;94271.78;;;-2.37;100.00
55590;BME280;41452;42.780;23.116;2023-01-30T11:12:11;94263.56;;;-2.40;100.00
55590;BME280;41452;42.780;23.116;2023-01-30T11:15:02;94252.13;;;-2.46;99.84
55590;BME280;41452;42.780;23.116;2023-01-30T11:17:35;94252.69;;;-2.34;100.00
55590;BME280;41452;42.780;23.116;2023-01-30T11:20:23;94236.44;;;-2.35;100.00
55590;BME280;41452;42.780;23.116;2023-01-30T11:23:04;94233.84;;;-2.35;100.00
55590;BME280;41452;42.780;23.116;2023-01-30T11:25:30;94215.19;;;-2.37;100.00
55590;BME280;41452;42.780;23.116;2023-01-30T11:28:04;94237.75;;;-2.31;99.50
55590;BME280;41452;42.780;23.116;2023-01-30T11:30:34;94228.41;;;-2.32;100.00
55590;BME280;41452;42.780;23.116;2023-01-30T11:33:14;94237.59;;;-2.29;100.00
55590;BME280;41452;42.780;23.116;2023-01-30T11:38:55;94216.53;;;-2.33;100.00
55590;BME280;41452;42.780;23.116;2023-01-30T11:41:21;94195.25;;;-2.43;100.00
55590;BME280;41452;42.780;23.116;2023-01-30T11:43:47;94164.34;;;-2.59;100.00
55590;BME280;41452;42.780;23.116;2023-01-30T11:46:18;94203.47;;;-2.31;99.75
55590;BME280;41452;42.780;23.116;2023-01-30T11:48:58;94192.09;;;-2.28;100.00
55590;BME280;41452;42.780;23.116;2023-01-30T11:51:25;94195.75;;;-2.31;100.00
55590;BME280;41452;42.780;23.116;2023-01-30T11:54:19;94189.53;;;-2.28;99.79
55590;BME280;41452;42.780;23.116;2023-01-30T11:56:53;94182.44;;;-2.26;100.00
55590;BME280;41452;42.780;23.116;2023-01-30T11:59:26;94181.16;;;-2.22;99.88
55590;BME280;41452;42.780;23.116;2023-01-30T12:02:02;94175.75;;;-2.11;100.00
55590;BME280;41452;42.780;23.116;2023-01-30T12:04:28;94167.16;;;-2.28;100.00
55590;BME280;41452;42.780;23.116;2023-01-30T12:07:18;94165.25;;;-2.26;99.27
55590;BME280;41452;42.780;23.116;2023-01-30T12:09:44;94163.19;;;-2.14;100.00
55590;BME280;41452;42.780;23.116;2023-01-30T12:21:31;94141.47;;;-2.12;100.00
55590;BME280;41452;42.780;23.116;2023-01-30T12:24:12;94136.03;;;-2.17;99.75
55590;BME280;41452;42.780;23.116;2023-01-30T12:26:52;94077.41;;;-2.47;100.00
55590;BME280;41452;42.780;23.116;2023-01-30T12:29:27;94126.53;;;-2.08;98.98
55590;BME280;41452;42.780;23.116;2023-01-30T12:34:29;94117.50;;;-2.20;98.53
55590;BME280;41452;42.780;23.116;2023-01-30T12:42:54;94112.06;;;-2.01;100.00
55590;BME280;41452;42.780;23.116;2023-01-30T12:45:28;94104.34;;;-2.01;99.31
55590;BME280;41452;42.780;23.116;2023-01-30T12:59:39;94103.41;;;-2.00;99.97
55590;BME280;41452;42.780;23.116;2023-01-30T13:08:02;94092.09;;;-2.15;98.56
55590;BME280;41452;42.780;23.116;2023-01-30T13:10:47;94093.53;;;-2.21;98.99
55590;BME280;41452;42.780;23.116;2023-01-30T13:18:54;94083.91;;;-2.11;97.80
55590;BME280;41452;42.780;23.116;2023-01-30T13:26:42;94021.66;;;-2.39;98.61
55590;BME280;41452;42.780;23.116;2023-01-30T13:29:13;94066.56;;;-1.92;98.44
55590;BME280;41452;42.780;23.116;2023-01-30T13:31:53;94049.69;;;-2.11;97.36
55590;BME280;41452;42.780;23.116;2023-01-30T13:34:33;94059.19;;;-1.95;98.71
55590;BME280;41452;42.780;23.116;2023-01-30T13:37:02;94059.66;;;-2.00;97.73
55590;BME280;41452;42.780;23.116;2023-01-30T13:42:32;94053.69;;;-2.00;96.97
55590;BME280;41452;42.780;23.116;2023-01-30T13:45:00;94059.31;;;-1.97;98.26
55590;BME280;41452;42.780;23.116;2023-01-30T13:56:14;94044.03;;;-1.98;97.45
55590;BME280;41452;42.780;23.116;2023-01-30T13:58:58;94039.38;;;-1.95;99.36
55590;BME280;41452;42.780;23.116;2023-01-30T14:09:41;93994.19;;;-2.30;97.76
55590;BME280;41452;42.780;23.116;2023-01-30T14:12:21;94049.69;;;-1.95;97.86
55590;BME280;41452;42.780;23.116;2023-01-30T14:15:18;94050.00;;;-1.98;97.30
55590;BME280;41452;42.780;23.116;2023-01-30T14:18:06;94050.63;;;-1.96;97.50
55590;BME280;41452;42.780;23.116;2023-01-30T14:20:45;94040.66;;;-2.07;97.46
55590;BME280;41452;42.780;23.116;2023-01-30T14:23:32;94046.78;;;-2.16;97.26
55590;BME280;41452;42.780;23.116;2023-01-30T14:25:58;94026.97;;;-2.24;97.49
55590;BME280;41452;42.780;23.116;2023-01-30T14:30:54;94040.16;;;-2.19;97.75
55590;BME280;41452;42.780;23.116;2023-01-30T14:38:16;94039.38;;;-2.11;96.62
55590;BME280;41452;42.780;23.116;2023-01-30T14:40:47;94041.13;;;-2.12;96.19
55590;BME280;41452;42.780;23.116;2023-01-30T14:45:54;94025.41;;;-2.17;95.59
55590;BME280;41452;42.780;23.116;2023-01-30T14:53:55;94006.38;;;-2.24;95.62
55590;BME280;41452;42.780;23.116;2023-01-30T14:56:41;94017.16;;;-2.20;95.40
55590;BME280;41452;42.780;23.116;2023-01-30T14:59:29;94018.31;;;-2.15;95.56
55590;BME280;41452;42.780;23.116;2023-01-30T15:07:57;94019.09;;;-2.31;95.25
55590;BME280;41452;42.780;23.116;2023-01-30T15:13:05;94015.22;;;-2.35;95.81
55590;BME280;41452;42.780;23.116;2023-01-30T15:18:28;94022.28;;;-2.37;95.20
55590;BME280;41452;42.780;23.116;2023-01-30T15:28:55;94019.41;;;-2.34;96.13
55590;BME280;41452;42.780;23.116;2023-01-30T15:31:26;94019.09;;;-2.31;95.54
55590;BME280;41452;42.780;23.116;2023-01-30T15:33:53;93965.69;;;-2.61;94.57
55590;BME280;41452;42.780;23.116;2023-01-30T15:36:29;94015.88;;;-2.33;94.54
55590;BME280;41452;42.780;23.116;2023-01-30T15:39:01;94020.69;;;-2.30;94.66